sensor_id;sensor_type;location;lat;lon;timestamp;pressure;altitude;pressure_sealevel;temperature
76007;BMP280;64699;0.000;0.000;2023-07-31T00:02:15;99897.03;;;22.08
76007;BMP280;64699;0.000;0.000;2023-07-31T00:04:40;99894.09;;;22.06
76007;BMP280;64699;0.000;0.000;2023-07-31T00:07:05;99901.09;;;22.07
76007;BMP280;64699;0.000;0.000;2023-07-31T00:09:31;99892.78;;;22.07
76007;BMP280;64699;0.000;0.000;2023-07-31T00:11:57;99903.84;;;22.07
76007;BMP280;64699;0.000;0.000;2023-07-31T00:14:22;99898.88;;;22.06
76007;BMP280;64699;0.000;0.000;2023-07-31T00:16:47;99889.31;;;22.07
76007;BMP280;64699;0.000;0.000;2023-07-31T00:19:12;99900.91;;;22.05
76007;BMP280;64699;0.000;0.000;2023-07-31T00:21:37;99889.31;;;22.07
76007;BMP280;64699;0.000;0.000;2023-07-31T00:24:03;99895.56;;;22.07
76007;BMP280;64699;0.000;0.000;2023-07-31T00:26:28;99906.03;;;22.09
76007;BMP280;64699;0.000;0.000;2023-07-31T00:28:53;99908.81;;;22.09
76007;BMP280;64699;0.000;0.000;2023-07-31T00:31:18;99908.09;;;22.08
76007;BMP280;64699;0.000;0.000;2023-07-31T00:33:43;99911.59;;;22.09
76007;BMP280;64699;0.000;0.000;2023-07-31T00:36:09;99914.75;;;22.05
76007;BMP280;64699;0.000;0.000;2023-07-31T00:38:34;99907.78;;;22.04
76007;BMP280;64699;0.000;0.000;2023-07-31T00:40:59;99912.00;;;22.05
76007;BMP280;64699;0.000;0.000;2023-07-31T00:43:24;99908.50;;;22.05
76007;BMP280;64699;0.000;0.000;2023-07-31T00:45:49;99909.22;;;22.05
76007;BMP280;64699;0.000;0.000;2023-07-31T00:48:15;99910.69;;;22.06
76007;BMP280;64699;0.000;0.000;2023-07-31T00:50:40;99902.25;;;22.04
76007;BMP280;64699;0.000;0.000;2023-07-31T00:53:06;99901.50;;;22.04
76007;BMP280;64699;0.000;0.000;2023-07-31T00:55:31;99908.31;;;22.03
76007;BMP280;64699;0.000;0.000;2023-07-31T00:57:56;99907.03;;;22.04
76007;BMP280;64699;0.000;0.000;2023-07-31T01:00:21;99906.31;;;22.03
76007;BMP280;64699;0.000;0.000;2023-07-31T01:02:48;99900.03;;;22.03
76007;BMP280;64699;0.000;0.000;2023-07-31T01:05:13;99906.31;;;22.03
76007;BMP280;64699;0.000;0.000;2023-07-31T01:07:49;99909.22;;;22.05
76007;BMP280;64699;0.000;0.000;2023-07-31T01:10:23;99908.19;;;22.01
76007;BMP280;64699;0.000;0.000;2023-07-31T01:12:51;99909.63;;;22.02
76007;BMP280;64699;0.000;0.000;2023-07-31T01:15:16;99905.00;;;22.04
76007;BMP280;64699;0.000;0.000;2023-07-31T01:17:42;99899.78;;;22.08
76007;BMP280;64699;0.000;0.000;2023-07-31T01:20:12;99899.63;;;22.06
76007;BMP280;64699;0.000;0.000;2023-07-31T01:27:51;99915.59;;;22.15
76007;BMP280;64699;0.000;0.000;2023-07-31T01:30:20;99918.19;;;22.13
76007;BMP280;64699;0.000;0.000;2023-07-31T01:32:47;99905.50;;;22.10
76007;BMP280;64699;0.000;0.000;2023-07-31T01:35:12;99909.53;;;22.09
76007;BMP280;64699;0.000;0.000;2023-07-31T01:37:38;99919.09;;;22.16
76007;BMP280;64699;0.000;0.000;2023-07-31T01:40:04;99924.63;;;22.16
76007;BMP280;64699;0.000;0.000;2023-07-31T01:42:29;99917.63;;;22.15
76007;BMP280;64699;0.000;0.000;2023-07-31T01:44:54;99917.38;;;22.20
76007;BMP280;64699;0.000;0.000;2023-07-31T01:47:19;99923.88;;;22.15
76007;BMP280;64699;0.000;0.000;2023-07-31T01:49:45;99920.94;;;22.13
76007;BMP280;64699;0.000;0.000;2023-07-31T01:52:10;99921.34;;;22.10
76007;BMP280;64699;0.000;0.000;2023-07-31T01:54:35;99917.84;;;22.09
76007;BMP280;64699;0.000;0.000;2023-07-31T01:57:01;99914.94;;;22.07
76007;BMP280;64699;0.000;0.000;2023-07-31T01:59:27;99923.78;;;22.06
76007;BMP280;64699;0.000;0.000;2023-07-31T02:01:53;99919.00;;;22.06
76007;BMP280;64699;0.000;0.000;2023-07-31T02:04:18;99927.47;;;22.08
76007;BMP280;64699;0.000;0.000;2023-07-31T02:06:43;99924.03;;;22.17
76007;BMP280;64699;0.000;0.000;2023-07-31T02:09:09;99916.22;;;22.06
76007;BMP280;64699;0.000;0.000;2023-07-31T02:11:34;99915.91;;;22.02
76007;BMP280;64699;0.000;0.000;2023-07-31T02:13:59;99929.56;;;22.00
76007;BMP280;64699;0.000;0.000;2023-07-31T02:16:24;99911.50;;;21.99
76007;BMP280;64699;0.000;0.000;2023-07-31T02:18:49;99925.88;;;21.98
76007;BMP280;64699;0.000;0.000;2023-07-31T02:21:15;99915.16;;;22.02
76007;BMP280;64699;0.000;0.000;2023-07-31T02:23:40;99924.22;;;22.02
76007;BMP280;64699;0.000;0.000;2023-07-31T02:26:05;99925.88;;;21.98
76007;BMP280;64699;0.000;0.000;2023-07-31T02:28:30;99932.56;;;21.95
76007;BMP280;64699;0.000;0.000;2023-07-31T02:30:55;99929.78;;;21.95
76007;BMP280;64699;0.000;0.000;2023-07-31T02:33:21;99935.50;;;21.97
76007;BMP280;64699;0.000;0.000;2023-07-31T02:35:46;99926.88;;;21.93
76007;BMP280;64699;0.000;0.000;2023-07-31T02:38:11;99930.19;;;21.91
76007;BMP280;64699;0.000;0.000;2023-07-31T02:40:36;99927.97;;;21.90
76007;BMP280;64699;0.000;0.000;2023-07-31T02:43:02;99938.34;;;21.89
76007;BMP280;64699;0.000;0.000;2023-07-31T02:45:27;99939.63;;;21.88
76007;BMP280;64699;0.000;0.000;2023-07-31T02:47:52;99948.66;;;21.89
76007;BMP280;64699;0.000;0.000;2023-07-31T02:50:17;99951.25;;;21.87
76007;BMP280;64699;0.000;0.000;2023-07-31T02:52:43;99944.41;;;21.88
76007;BMP280;64699;0.000;0.000;2023-07-31T02:55:08;99947.19;;;21.88
76007;BMP280;64699;0.000;0.000;2023-07-31T02:57:33;99955.47;;;21.88
76007;BMP280;64699;0.000;0.000;2023-07-31T02:59:58;99960.28;;;21.87
76007;BMP280;64699;0.000;0.000;2023-07-31T03:02:23;99952.00;;;21.87
76007;BMP280;64699;0.000;0.000;2023-07-31T03:04:48;99947.94;;;21.88
76007;BMP280;64699;0.000;0.000;2023-07-31T03:07:14;99933.34;;;21.88
76007;BMP280;64699;0.000;0.000;2023-07-31T03:09:39;99946.47;;;21.87
76007;BMP280;64699;0.000;0.000;2023-07-31T03:12:04;99943.13;;;21.89
76007;BMP280;64699;0.000;0.000;2023-07-31T03:14:29;99945.16;;;21.88
76007;BMP280;64699;0.000;0.000;2023-07-31T03:16:55;99954.19;;;21.89
76007;BMP280;64699;0.000;0.000;2023-07-31T03:19:20;99946.63;;;21.89
76007;BMP280;64699;0.000;0.000;2023-07-31T03:21:45;99956.22;;;21.88
76007;BMP280;64699;0.000;0.000;2023-07-31T03:24:11;99940.94;;;21.87
76007;BMP280;64699;0.000;0.000;2023-07-31T03:26:37;99938.16;;;21.87
76007;BMP280;64699;0.000;0.000;2023-07-31T03:29:03;99942.19;;;21.86
76007;BMP280;64699;0.000;0.000;2023-07-31T03:31:28;99946.47;;;21.87
76007;BMP280;64699;0.000;0.000;2023-07-31T03:33:53;99942.94;;;21.87
76007;BMP280;64699;0.000;0.000;2023-07-31T03:36:18;99948.47;;;21.87
76007;BMP280;64699;0.000;0.000;2023-07-31T03:38:44;99946.47;;;21.87
76007;BMP280;64699;0.000;0.000;2023-07-31T03:41:09;99952.00;;;21.87
76007;BMP280;64699;0.000;0.000;2023-07-31T03:43:35;99952.72;;;21.88
76007;BMP280;64699;0.000;0.000;2023-07-31T03:46:00;99952.88;;;21.90
76007;BMP280;64699;0.000;0.000;2023-07-31T03:48:26;99948.84;;;21.91
76007;BMP280;64699;0.000;0.000;2023-07-31T03:50:51;99958.00;;;21.93
76007;BMP280;64699;0.000;0.000;2023-07-31T03:53:16;99949.56;;;21.91
76007;BMP280;64699;0.000;0.000;2023-07-31T03:55:42;99953.78;;;21.92
76007;BMP280;64699;0.000;0.000;2023-07-31T03:58:07;99947.53;;;21.92
76007;BMP280;64699;0.000;0.000;2023-07-31T04:00:32;99956.56;;;21.92
76007;BMP280;64699;0.000;0.000;2023-07-31T04:02:57;99958.75;;;21.94
76007;BMP280;64699;0.000;0.000;2023-07-31T04:05:22;99958.19;;;21.95
76007;BMP280;64699;0.000;0.000;2023-07-31T04:07:48;99954.69;;;21.95
76007;BMP280;64699;0.000;0.000;2023-07-31T04:10:13;99966.50;;;21.95
76007;BMP280;64699;0.000;0.000;2023-07-31T04:12:38;99972.03;;;21.95
76007;BMP280;64699;0.000;0.000;2023-07-31T04:15:03;99966.28;;;21.93
76007;BMP280;64699;0.000;0.000;2023-07-31T04:17:29;99969.06;;;21.93
76007;BMP280;64699;0.000;0.000;2023-07-31T04:19:54;99962.22;;;21.94
76007;BMP280;64699;0.000;0.000;2023-07-31T04:22:19;99970.53;;;21.94
76007;BMP280;64699;0.000;0.000;2023-07-31T04:24:44;99976.06;;;21.94
76007;BMP280;64699;0.000;0.000;2023-07-31T04:27:09;99979.03;;;21.96
76007;BMP280;64699;0.000;0.000;2023-07-31T04:29:35;99984.34;;;21.94
76007;BMP280;64699;0.000;0.000;2023-07-31T04:32:00;99983.09;;;21.95
76007;BMP280;64699;0.000;0.000;2023-07-31T04:34:25;99992.66;;;21.94
76007;BMP280;64699;0.000;0.000;2023-07-31T04:36:50;99991.53;;;21.97
76007;BMP280;64699;0.000;0.000;2023-07-31T04:39:16;99990.09;;;21.96
76007;BMP280;64699;0.000;0.000;2023-07-31T04:41:41;100003.19;;;21.96
76007;BMP280;64699;0.000;0.000;2023-07-31T04:44:06;99998.94;;;21.95
76007;BMP280;64699;0.000;0.000;2023-07-31T04:46:31;100000.22;;;21.94
76007;BMP280;64699;0.000;0.000;2023-07-31T04:48:56;100004.47;;;21.95
76007;BMP280;64699;0.000;0.000;2023-07-31T04:51:22;99996.91;;;21.95
76007;BMP280;64699;0.000;0.000;2023-07-31T04:53:48;100011.47;;;21.96
76007;BMP280;64699;0.000;0.000;2023-07-31T04:56:13;100010.75;;;21.95
76007;BMP280;64699;0.000;0.000;2023-07-31T04:58:40;99997.47;;;21.94
76007;BMP280;64699;0.000;0.000;2023-07-31T05:01:05;99998.19;;;21.94
76007;BMP280;64699;0.000;0.000;2023-07-31T05:03:30;99991.19;;;21.93
76007;BMP280;64699;0.000;0.000;2023-07-31T05:05:56;99998.19;;;21.94
76007;BMP280;64699;0.000;0.000;2023-07-31T05:08:21;100000.22;;;21.94
76007;BMP280;64699;0.000;0.000;2023-07-31T05:10:46;99999.69;;;21.95
76007;BMP280;64699;0.000;0.000;2023-07-31T05:13:11;99996.91;;;21.95
76007;BMP280;64699;0.000;0.000;2023-07-31T05:15:36;99993.94;;;22.01
76007;BMP280;64699;0.000;0.000;2023-07-31T05:18:02;100003.78;;;21.87
76007;BMP280;64699;0.000;0.000;2023-07-31T05:20:27;99989.13;;;21.77
76007;BMP280;64699;0.000;0.000;2023-07-31T05:22:52;99992.13;;;21.71
76007;BMP280;64699;0.000;0.000;2023-07-31T05:25:18;99991.41;;;21.63
76007;BMP280;64699;0.000;0.000;2023-07-31T05:27:43;99994.22;;;21.56
76007;BMP280;64699;0.000;0.000;2023-07-31T05:30:08;99994.81;;;21.55
76007;BMP280;64699;0.000;0.000;2023-07-31T05:32:33;100001.44;;;21.52
76007;BMP280;64699;0.000;0.000;2023-07-31T05:34:58;99997.78;;;21.49
76007;BMP280;64699;0.000;0.000;2023-07-31T05:37:24;100001.84;;;21.48
76007;BMP280;64699;0.000;0.000;2023-07-31T05:39:49;100014.91;;;21.48
76007;BMP280;64699;0.000;0.000;2023-07-31T05:42:14;100014.75;;;21.46
76007;BMP280;64699;0.000;0.000;2023-07-31T05:44:40;100012.00;;;21.46
76007;BMP280;64699;0.000;0.000;2023-07-31T05:47:05;100020.28;;;21.46
76007;BMP280;64699;0.000;0.000;2023-07-31T05:49:31;100013.28;;;21.45
76007;BMP280;64699;0.000;0.000;2023-07-31T05:51:56;100014.56;;;21.44
76007;BMP280;64699;0.000;0.000;2023-07-31T05:54:21;100029.72;;;21.43
76007;BMP280;64699;0.000;0.000;2023-07-31T05:56:46;100024.19;;;21.43
76007;BMP280;64699;0.000;0.000;2023-07-31T05:59:12;100029.72;;;21.43
76007;BMP280;64699;0.000;0.000;2023-07-31T06:01:37;100028.06;;;21.40
76007;BMP280;64699;0.000;0.000;2023-07-31T06:04:02;100035.63;;;21.39
76007;BMP280;64699;0.000;0.000;2023-07-31T06:06:28;100037.56;;;21.54
76007;BMP280;64699;0.000;0.000;2023-07-31T06:08:53;100038.75;;;21.67
76007;BMP280;64699;0.000;0.000;2023-07-31T06:11:19;100042.91;;;21.83
76007;BMP280;64699;0.000;0.000;2023-07-31T06:13:45;100044.72;;;21.88
76007;BMP280;64699;0.000;0.000;2023-07-31T06:16:11;100046.03;;;21.87
76007;BMP280;64699;0.000;0.000;2023-07-31T06:18:37;100046.22;;;21.89
76007;BMP280;64699;0.000;0.000;2023-07-31T06:21:02;100049.88;;;21.92
76007;BMP280;64699;0.000;0.000;2023-07-31T06:23:27;100050.59;;;21.92
76007;BMP280;64699;0.000;0.000;2023-07-31T06:25:52;100050.59;;;21.92
76007;BMP280;64699;0.000;0.000;2023-07-31T06:28:17;100054.09;;;21.93
76007;BMP280;64699;0.000;0.000;2023-07-31T06:30:43;100049.28;;;21.93
76007;BMP280;64699;0.000;0.000;2023-07-31T06:33:08;100062.41;;;21.93
76007;BMP280;64699;0.000;0.000;2023-07-31T06:35:34;100054.09;;;21.93
76007;BMP280;64699;0.000;0.000;2023-07-31T06:37:59;100054.25;;;21.95
76007;BMP280;64699;0.000;0.000;2023-07-31T06:40:24;100051.66;;;21.97
76007;BMP280;64699;0.000;0.000;2023-07-31T06:42:49;100055.00;;;21.95
76007;BMP280;64699;0.000;0.000;2023-07-31T06:45:15;100052.25;;;21.95
76007;BMP280;64699;0.000;0.000;2023-07-31T06:47:40;100057.03;;;21.95
76007;BMP280;64699;0.000;0.000;2023-07-31T06:50:05;100061.00;;;22.01
76007;BMP280;64699;0.000;0.000;2023-07-31T06:52:31;100062.72;;;21.97
76007;BMP280;64699;0.000;0.000;2023-07-31T06:55:02;100063.47;;;21.97
76007;BMP280;64699;0.000;0.000;2023-07-31T06:57:28;100068.84;;;21.95
76007;BMP280;64699;0.000;0.000;2023-07-31T06:59:54;100064.56;;;21.94
76007;BMP280;64699;0.000;0.000;2023-07-31T07:02:19;100070.09;;;21.94
76007;BMP280;64699;0.000;0.000;2023-07-31T07:04:44;100068.63;;;21.93
76007;BMP280;64699;0.000;0.000;2023-07-31T07:07:09;100064.41;;;21.92
76007;BMP280;64699;0.000;0.000;2023-07-31T07:09:34;100069.22;;;21.92
76007;BMP280;64699;0.000;0.000;2023-07-31T07:12:00;100071.25;;;21.91
76007;BMP280;64699;0.000;0.000;2023-07-31T07:14:25;100068.47;;;21.91
76007;BMP280;64699;0.000;0.000;2023-07-31T07:16:51;100073.28;;;21.91
76007;BMP280;64699;0.000;0.000;2023-07-31T07:19:16;100074.75;;;21.92
76007;BMP280;64699;0.000;0.000;2023-07-31T07:21:41;100064.25;;;21.90
76007;BMP280;64699;0.000;0.000;2023-07-31T07:24:06;100067.00;;;21.90
76007;BMP280;64699;0.000;0.000;2023-07-31T07:26:32;100065.00;;;21.91
76007;BMP280;64699;0.000;0.000;2023-07-31T07:28:57;100067.00;;;21.90
76007;BMP280;64699;0.000;0.000;2023-07-31T07:31:23;100068.47;;;21.91
76007;BMP280;64699;0.000;0.000;2023-07-31T07:33:48;100067.00;;;21.90
76007;BMP280;64699;0.000;0.000;2023-07-31T07:36:13;100065.72;;;21.91
76007;BMP280;64699;0.000;0.000;2023-07-31T07:38:38;100067.00;;;21.90
76007;BMP280;64699;0.000;0.000;2023-07-31T07:41:04;100072.00;;;21.92
76007;BMP280;64699;0.000;0.000;2023-07-31T07:43:29;100069.94;;;21.92
76007;BMP280;64699;0.000;0.000;2023-07-31T07:45:54;100065.72;;;21.91
76007;BMP280;64699;0.000;0.000;2023-07-31T07:48:20;100071.25;;;21.91
76007;BMP280;64699;0.000;0.000;2023-07-31T07:50:45;100078.25;;;21.92
76007;BMP280;64699;0.000;0.000;2023-07-31T07:53:10;100070.84;;;21.95
76007;BMP280;64699;0.000;0.000;2023-07-31T07:55:35;100074.53;;;21.97
76007;BMP280;64699;0.000;0.000;2023-07-31T07:58:00;100075.25;;;21.98
76007;BMP280;64699;0.000;0.000;2023-07-31T08:00:26;100066.41;;;21.99
76007;BMP280;64699;0.000;0.000;2023-07-31T08:02:51;100071.22;;;21.99
76007;BMP280;64699;0.000;0.000;2023-07-31T08:05:16;100074.53;;;21.97
76007;BMP280;64699;0.000;0.000;2023-07-31T08:07:42;100074.53;;;21.97
76007;BMP280;64699;0.000;0.000;2023-07-31T08:10:07;100073.22;;;21.98
76007;BMP280;64699;0.000;0.000;2023-07-31T08:12:33;100070.47;;;21.98
76007;BMP280;64699;0.000;0.000;2023-07-31T08:14:58;100075.25;;;21.98
76007;BMP280;64699;0.000;0.000;2023-07-31T08:17:25;100063.47;;;21.97
76007;BMP280;64699;0.000;0.000;2023-07-31T08:19:50;100064.94;;;21.98
76007;BMP280;64699;0.000;0.000;2023-07-31T08:22:15;100063.47;;;21.97
76007;BMP280;64699;0.000;0.000;2023-07-31T08:24:40;100056.47;;;21.96
76007;BMP280;64699;0.000;0.000;2023-07-31T08:27:06;100059.25;;;21.96
76007;BMP280;64699;0.000;0.000;2023-07-31T08:29:31;100060.53;;;21.95
76007;BMP280;64699;0.000;0.000;2023-07-31T08:31:56;100067.53;;;21.96
76007;BMP280;64699;0.000;0.000;2023-07-31T08:34:22;100067.53;;;21.96
76007;BMP280;64699;0.000;0.000;2023-07-31T08:36:47;100067.53;;;21.96
76007;BMP280;64699;0.000;0.000;2023-07-31T08:39:12;100077.47;;;21.99
76007;BMP280;64699;0.000;0.000;2023-07-31T08:41:38;100069.66;;;22.05
76007;BMP280;64699;0.000;0.000;2023-07-31T08:44:04;100062.22;;;22.15
76007;BMP280;64699;0.000;0.000;2023-07-31T08:46:29;100064.47;;;22.09
76007;BMP280;64699;0.000;0.000;2023-07-31T08:48:55;100060.88;;;21.99
76007;BMP280;64699;0.000;0.000;2023-07-31T08:51:20;100057.78;;;21.95
76007;BMP280;64699;0.000;0.000;2023-07-31T08:53:45;100064.41;;;21.92
76007;BMP280;64699;0.000;0.000;2023-07-31T08:56:11;100052.44;;;21.90
76007;BMP280;64699;0.000;0.000;2023-07-31T08:58:36;100051.75;;;21.89
76007;BMP280;64699;0.000;0.000;2023-07-31T09:01:04;100055.78;;;21.88
76007;BMP280;64699;0.000;0.000;2023-07-31T09:03:29;100051.38;;;21.85
76007;BMP280;64699;0.000;0.000;2023-07-31T09:05:56;100058.34;;;21.86
76007;BMP280;64699;0.000;0.000;2023-07-31T09:08:21;100051.19;;;21.83
76007;BMP280;64699;0.000;0.000;2023-07-31T09:10:47;100063.56;;;21.82
76007;BMP280;64699;0.000;0.000;2023-07-31T09:13:15;100055.84;;;21.81
76007;BMP280;64699;0.000;0.000;2023-07-31T09:15:43;100059.50;;;21.83
76007;BMP280;64699;0.000;0.000;2023-07-31T09:18:08;100052.28;;;21.88
76007;BMP280;64699;0.000;0.000;2023-07-31T09:20:34;100047.25;;;21.94
76007;BMP280;64699;0.000;0.000;2023-07-31T09:23:06;100048.19;;;21.96
76007;BMP280;64699;0.000;0.000;2023-07-31T09:25:32;100057.56;;;21.93
76007;BMP280;64699;0.000;0.000;2023-07-31T09:27:58;100053.50;;;21.94
76007;BMP280;64699;0.000;0.000;2023-07-31T09:30:23;100049.81;;;21.99
76007;BMP280;64699;0.000;0.000;2023-07-31T09:32:49;100045.75;;;22.00
76007;BMP280;64699;0.000;0.000;2023-07-31T09:35:21;100055.69;;;22.03
76007;BMP280;64699;0.000;0.000;2023-07-31T09:37:51;100052.69;;;22.09
76007;BMP280;64699;0.000;0.000;2023-07-31T09:40:29;100044.63;;;22.03
76007;BMP280;64699;0.000;0.000;2023-07-31T09:43:02;100047.03;;;21.99
76007;BMP280;64699;0.000;0.000;2023-07-31T09:45:27;100049.09;;;21.99
76007;BMP280;64699;0.000;0.000;2023-07-31T09:47:53;100053.13;;;21.98
76007;BMP280;64699;0.000;0.000;2023-07-31T09:50:19;100055.00;;;21.95
76007;BMP280;64699;0.000;0.000;2023-07-31T09:52:45;100066.63;;;21.94
76007;BMP280;64699;0.000;0.000;2023-07-31T09:55:10;100053.34;;;21.92
76007;BMP280;64699;0.000;0.000;2023-07-31T09:57:40;100052.63;;;21.92
76007;BMP280;64699;0.000;0.000;2023-07-31T10:00:07;100055.41;;;21.92
76007;BMP280;64699;0.000;0.000;2023-07-31T10:02:34;100053.19;;;21.90
76007;BMP280;64699;0.000;0.000;2023-07-31T10:04:59;100047.28;;;21.86
76007;BMP280;64699;0.000;0.000;2023-07-31T10:07:26;100057.28;;;21.89
76007;BMP280;64699;0.000;0.000;2023-07-31T10:09:53;100051.00;;;21.89
76007;BMP280;64699;0.000;0.000;2023-07-31T10:12:19;100042.34;;;21.85
76007;BMP280;64699;0.000;0.000;2023-07-31T10:14:46;100038.66;;;21.82
76007;BMP280;64699;0.000;0.000;2023-07-31T10:17:11;100038.84;;;21.84
76007;BMP280;64699;0.000;0.000;2023-07-31T10:19:37;100038.84;;;21.84
76007;BMP280;64699;0.000;0.000;2023-07-31T10:22:03;100045.84;;;21.85
76007;BMP280;64699;0.000;0.000;2023-07-31T10:24:29;100043.84;;;21.86
76007;BMP280;64699;0.000;0.000;2023-07-31T10:26:55;100040.13;;;21.83
76007;BMP280;64699;0.000;0.000;2023-07-31T10:29:24;100037.38;;;21.83
76007;BMP280;64699;0.000;0.000;2023-07-31T10:31:50;100045.13;;;21.85
76007;BMP280;64699;0.000;0.000;2023-07-31T10:34:15;100033.47;;;21.86
76007;BMP280;64699;0.000;0.000;2023-07-31T10:36:41;100040.13;;;21.83
76007;BMP280;64699;0.000;0.000;2023-07-31T10:39:06;100037.94;;;21.82
76007;BMP280;64699;0.000;0.000;2023-07-31T10:41:51;100033.13;;;21.82
76007;BMP280;64699;0.000;0.000;2023-07-31T10:44:16;100037.38;;;21.83
76007;BMP280;64699;0.000;0.000;2023-07-31T10:46:42;100038.06;;;21.91
76007;BMP280;64699;0.000;0.000;2023-07-31T10:49:07;100034.00;;;21.92
76007;BMP280;64699;0.000;0.000;2023-07-31T10:51:33;100036.59;;;21.90
76007;BMP280;64699;0.000;0.000;2023-07-31T10:54:12;100023.91;;;21.87
76007;BMP280;64699;0.000;0.000;2023-07-31T10:56:39;100032.78;;;21.86
76007;BMP280;64699;0.000;0.000;2023-07-31T10:59:04;100038.66;;;21.82
76007;BMP280;64699;0.000;0.000;2023-07-31T11:01:50;100021.94;;;21.80
76007;BMP280;64699;0.000;0.000;2023-07-31T11:04:15;100025.97;;;21.79
76007;BMP280;64699;0.000;0.000;2023-07-31T11:06:55;100023.22;;;21.79
76007;BMP280;64699;0.000;0.000;2023-07-31T11:09:20;100024.47;;;21.78
76007;BMP280;64699;0.000;0.000;2023-07-31T11:11:45;100025.97;;;21.79
76007;BMP280;64699;0.000;0.000;2023-07-31T11:14:11;100019.31;;;21.82
76007;BMP280;64699;0.000;0.000;2023-07-31T11:16:36;100019.47;;;21.84
76007;BMP280;64699;0.000;0.000;2023-07-31T11:19:01;100019.47;;;21.84
76007;BMP280;64699;0.000;0.000;2023-07-31T11:21:27;100024.28;;;21.84
76007;BMP280;64699;0.000;0.000;2023-07-31T11:23:54;100023.72;;;21.85
76007;BMP280;64699;0.000;0.000;2023-07-31T11:26:21;100018.19;;;21.85
76007;BMP280;64699;0.000;0.000;2023-07-31T11:28:46;100023.53;;;21.83
76007;BMP280;64699;0.000;0.000;2023-07-31T11:31:12;100013.78;;;21.82
76007;BMP280;64699;0.000;0.000;2023-07-31T11:33:37;100016.53;;;21.82
76007;BMP280;64699;0.000;0.000;2023-07-31T11:36:02;100019.31;;;21.82
76007;BMP280;64699;0.000;0.000;2023-07-31T11:38:28;100016.00;;;21.84
76007;BMP280;64699;0.000;0.000;2023-07-31T11:41:03;100021.34;;;21.82
76007;BMP280;64699;0.000;0.000;2023-07-31T11:43:29;100016.19;;;21.78
76007;BMP280;64699;0.000;0.000;2023-07-31T11:45:55;100017.50;;;21.77
76007;BMP280;64699;0.000;0.000;2023-07-31T11:48:21;100006.44;;;21.77
76007;BMP280;64699;0.000;0.000;2023-07-31T11:50:47;100014.91;;;21.79
76007;BMP280;64699;0.000;0.000;2023-07-31T11:53:14;100010.13;;;21.80
76007;BMP280;64699;0.000;0.000;2023-07-31T11:55:40;100000.53;;;21.81
76007;BMP280;64699;0.000;0.000;2023-07-31T11:58:06;100003.84;;;21.79
76007;BMP280;64699;0.000;0.000;2023-07-31T12:00:31;100014.16;;;21.79
76007;BMP280;64699;0.000;0.000;2023-07-31T12:02:57;100003.09;;;21.79
76007;BMP280;64699;0.000;0.000;2023-07-31T12:05:22;99996.84;;;21.78
76007;BMP280;64699;0.000;0.000;2023-07-31T12:07:52;100010.66;;;21.78
76007;BMP280;64699;0.000;0.000;2023-07-31T12:10:31;100009.22;;;21.77
76007;BMP280;64699;0.000;0.000;2023-07-31T12:13:09;99995.38;;;21.77
76007;BMP280;64699;0.000;0.000;2023-07-31T12:15:42;99998.31;;;21.79
76007;BMP280;64699;0.000;0.000;2023-07-31T12:18:11;99998.31;;;21.79
76007;BMP280;64699;0.000;0.000;2023-07-31T12:20:40;99992.06;;;21.79
76007;BMP280;64699;0.000;0.000;2023-07-31T12:23:05;99999.06;;;21.80
76007;BMP280;64699;0.000;0.000;2023-07-31T12:25:31;99995.75;;;21.81
76007;BMP280;64699;0.000;0.000;2023-07-31T12:27:56;100001.28;;;21.81
76007;BMP280;64699;0.000;0.000;2023-07-31T12:30:29;99988.75;;;21.80
76007;BMP280;64699;0.000;0.000;2023-07-31T12:32:54;99992.06;;;21.79
76007;BMP280;64699;0.000;0.000;2023-07-31T12:35:19;99982.47;;;21.80
76007;BMP280;64699;0.000;0.000;2023-07-31T12:37:45;99984.50;;;21.79
76007;BMP280;64699;0.000;0.000;2023-07-31T12:40:10;99979.88;;;21.82
76007;BMP280;64699;0.000;0.000;2023-07-31T12:42:35;99983.22;;;21.80
76007;BMP280;64699;0.000;0.000;2023-07-31T12:45:01;99981.75;;;21.79
76007;BMP280;64699;0.000;0.000;2023-07-31T12:47:26;99983.22;;;21.80
76007;BMP280;64699;0.000;0.000;2023-07-31T12:49:51;99985.78;;;21.78
76007;BMP280;64699;0.000;0.000;2023-07-31T12:52:16;99984.31;;;21.77
76007;BMP280;64699;0.000;0.000;2023-07-31T12:54:41;99980.25;;;21.78
76007;BMP280;64699;0.000;0.000;2023-07-31T12:57:07;99985.78;;;21.78
76007;BMP280;64699;0.000;0.000;2023-07-31T12:59:32;99978.78;;;21.77
76007;BMP280;64699;0.000;0.000;2023-07-31T13:01:57;99972.53;;;21.77
76007;BMP280;64699;0.000;0.000;2023-07-31T13:04:22;99970.50;;;21.77
76007;BMP280;64699;0.000;0.000;2023-07-31T13:06:47;99972.69;;;21.79
76007;BMP280;64699;0.000;0.000;2023-07-31T13:09:13;99962.22;;;21.77
76007;BMP280;64699;0.000;0.000;2023-07-31T13:11:38;99964.03;;;21.75
76007;BMP280;64699;0.000;0.000;2023-07-31T13:14:03;99970.69;;;21.79
76007;BMP280;64699;0.000;0.000;2023-07-31T13:16:28;99959.63;;;21.79
76007;BMP280;64699;0.000;0.000;2023-07-31T13:18:54;99956.09;;;21.79
76007;BMP280;64699;0.000;0.000;2023-07-31T13:21:19;99956.69;;;21.77
76007;BMP280;64699;0.000;0.000;2023-07-31T13:23:44;99944.16;;;21.76
76007;BMP280;64699;0.000;0.000;2023-07-31T13:26:09;99957.25;;;21.76
76007;BMP280;64699;0.000;0.000;2023-07-31T13:28:35;99950.44;;;21.77
76007;BMP280;64699;0.000;0.000;2023-07-31T13:31:01;99948.19;;;21.75
76007;BMP280;64699;0.000;0.000;2023-07-31T13:33:26;99948.19;;;21.75
76007;BMP280;64699;0.000;0.000;2023-07-31T13:35:51;99949.81;;;21.78
76007;BMP280;64699;0.000;0.000;2023-07-31T13:38:17;99945.63;;;21.77
76007;BMP280;64699;0.000;0.000;2023-07-31T13:40:43;99949.53;;;21.74
76007;BMP280;64699;0.000;0.000;2023-07-31T13:43:09;99941.22;;;21.74
76007;BMP280;64699;0.000;0.000;2023-07-31T13:45:34;99939.41;;;21.69
76007;BMP280;64699;0.000;0.000;2023-07-31T13:48:00;99942.34;;;21.71
76007;BMP280;64699;0.000;0.000;2023-07-31T13:50:25;99934.56;;;21.77
76007;BMP280;64699;0.000;0.000;2023-07-31T13:52:50;99942.59;;;21.83
76007;BMP280;64699;0.000;0.000;2023-07-31T13:55:15;99942.59;;;21.83
76007;BMP280;64699;0.000;0.000;2023-07-31T13:57:41;99918.63;;;21.85
76007;BMP280;64699;0.000;0.000;2023-07-31T14:00:06;99930.19;;;21.91
76007;BMP280;64699;0.000;0.000;2023-07-31T14:02:31;99925.97;;;21.90
76007;BMP280;64699;0.000;0.000;2023-07-31T14:04:57;99925.81;;;21.88
76007;BMP280;64699;0.000;0.000;2023-07-31T14:07:22;99932.22;;;21.91
76007;BMP280;64699;0.000;0.000;2023-07-31T14:09:47;99922.66;;;21.92
76007;BMP280;64699;0.000;0.000;2023-07-31T14:12:12;99923.38;;;21.92
76007;BMP280;64699;0.000;0.000;2023-07-31T14:14:37;99924.66;;;21.91